sensor_id;sensor_type;location;lat;lon;timestamp;P1;durP1;ratioP1;P2;durP2;ratioP2
77705;SDS011;66874;45.274;5.880;2023-04-23T02:02:22;9.27;;;4.28;;
77705;SDS011;66874;45.274;5.880;2023-04-23T02:04:47;11.27;;;5.03;;
77705;SDS011;66874;45.274;5.880;2023-04-23T02:07:14;9.00;;;4.20;;
77705;SDS011;66874;45.274;5.880;2023-04-23T02:09:39;7.40;;;4.63;;
77705;SDS011;66874;45.274;5.880;2023-04-23T02:12:05;9.95;;;4.50;;
77705;SDS011;66874;45.274;5.880;2023-04-23T02:14:30;10.18;;;4.38;;
77705;SDS011;66874;45.274;5.880;2023-04-23T02:16:56;7.43;;;5.43;;
77705;SDS011;66874;45.274;5.880;2023-04-23T02:19:21;10.02;;;5.50;;
77705;SDS011;66874;45.274;5.880;2023-04-23T02:21:47;12.00;;;4.85;;
77705;SDS011;66874;45.274;5.880;2023-04-23T02:24:12;7.95;;;4.70;;
77705;SDS011;66874;45.274;5.880;2023-04-23T02:26:38;9.05;;;4.63;;
77705;SDS011;66874;45.274;5.880;2023-04-23T02:29:03;11.95;;;4.65;;
77705;SDS011;66874;45.274;5.880;2023-04-23T05:30:13;15.73;;;6.28;;
77705;SDS011;66874;45.274;5.880;2023-04-23T05:32:38;14.48;;;6.75;;
77705;SDS011;66874;45.274;5.880;2023-04-23T05:35:04;11.77;;;7.38;;
77705;SDS011;66874;45.274;5.880;2023-04-23T05:37:30;11.82;;;7.93;;
77705;SDS011;66874;45.274;5.880;2023-04-23T05:39:55;10.85;;;7.30;;
77705;SDS011;66874;45.274;5.880;2023-04-23T05:42:22;11.52;;;7.40;;
77705;SDS011;66874;45.274;5.880;2023-04-23T05:44:47;11.48;;;7.90;;
77705;SDS011;66874;45.274;5.880;2023-04-23T05:47:13;13.25;;;7.85;;
77705;SDS011;66874;45.274;5.880;2023-04-23T05:49:38;10.23;;;7.03;;
77705;SDS011;66874;45.274;5.880;2023-04-23T05:52:04;14.90;;;7.93;;
77705;SDS011;66874;45.274;5.880;2023-04-23T05:54:30;12.02;;;8.15;;
77705;SDS011;66874;45.274;5.880;2023-04-23T05:56:55;10.98;;;7.85;;
77705;SDS011;66874;45.274;5.880;2023-04-23T05:59:21;11.23;;;7.38;;
77705;SDS011;66874;45.274;5.880;2023-04-23T06:01:46;10.75;;;6.60;;
77705;SDS011;66874;45.274;5.880;2023-04-23T06:04:13;12.32;;;7.63;;
77705;SDS011;66874;45.274;5.880;2023-04-23T06:06:39;11.60;;;7.80;;
77705;SDS011;66874;45.274;5.880;2023-04-23T06:09:04;16.35;;;8.38;;
77705;SDS011;66874;45.274;5.880;2023-04-23T06:11:30;12.85;;;7.38;;
77705;SDS011;66874;45.274;5.880;2023-04-23T06:13:56;11.35;;;7.07;;
77705;SDS011;66874;45.274;5.880;2023-04-23T06:16:23;10.93;;;7.32;;
77705;SDS011;66874;45.274;5.880;2023-04-23T06:18:48;11.52;;;8.35;;
77705;SDS011;66874;45.274;5.880;2023-04-23T06:21:14;12.65;;;6.82;;
77705;SDS011;66874;45.274;5.880;2023-04-23T06:23:39;11.90;;;6.70;;
77705;SDS011;66874;45.274;5.880;2023-04-23T06:26:05;13.30;;;6.32;;
77705;SDS011;66874;45.274;5.880;2023-04-23T06:28:30;11.60;;;6.80;;
77705;SDS011;66874;45.274;5.880;2023-04-23T06:30:56;8.10;;;6.20;;
77705;SDS011;66874;45.274;5.880;2023-04-23T06:33:21;11.18;;;6.32;;
77705;SDS011;66874;45.274;5.880;2023-04-23T06:35:46;7.97;;;5.50;;
77705;SDS011;66874;45.274;5.880;2023-04-23T06:38:12;8.48;;;6.07;;
77705;SDS011;66874;45.274;5.880;2023-04-23T06:40:37;12.27;;;8.00;;
77705;SDS011;66874;45.274;5.880;2023-04-23T06:43:03;10.82;;;6.10;;
77705;SDS011;66874;45.274;5.880;2023-04-23T06:45:32;14.32;;;6.30;;
77705;SDS011;66874;45.274;5.880;2023-04-23T06:47:58;10.55;;;5.50;;
77705;SDS011;66874;45.274;5.880;2023-04-23T06:50:24;9.15;;;6.30;;
77705;SDS011;66874;45.274;5.880;2023-04-23T06:52:50;12.00;;;6.22;;
77705;SDS011;66874;45.274;5.880;2023-04-23T06:55:17;9.27;;;6.28;;
77705;SDS011;66874;45.274;5.880;2023-04-23T06:57:42;8.35;;;6.13;;
77705;SDS011;66874;45.274;5.880;2023-04-23T07:00:08;10.90;;;6.80;;
77705;SDS011;66874;45.274;5.880;2023-04-23T07:02:37;8.77;;;6.30;;
77705;SDS011;66874;45.274;5.880;2023-04-23T07:05:03;9.85;;;6.78;;
77705;SDS011;66874;45.274;5.880;2023-04-23T07:07:28;9.05;;;5.82;;
77705;SDS011;66874;45.274;5.880;2023-04-23T07:09:54;7.88;;;5.38;;
77705;SDS011;66874;45.274;5.880;2023-04-23T07:12:19;8.38;;;5.63;;
77705;SDS011;66874;45.274;5.880;2023-04-23T07:14:45;9.02;;;5.30;;
77705;SDS011;66874;45.274;5.880;2023-04-23T07:17:10;9.50;;;6.20;;
77705;SDS011;66874;45.274;5.880;2023-04-23T07:19:36;11.23;;;5.35;;
77705;SDS011;66874;45.274;5.880;2023-04-23T07:22:02;7.43;;;6.00;;
77705;SDS011;66874;45.274;5.880;2023-04-23T07:24:27;10.50;;;5.70;;
77705;SDS011;66874;45.274;5.880;2023-04-23T07:26:53;10.60;;;5.72;;
77705;SDS011;66874;45.274;5.880;2023-04-23T07:29:18;8.98;;;5.88;;
77705;SDS011;66874;45.274;5.880;2023-04-23T07:31:44;7.72;;;5.15;;
77705;SDS011;66874;45.274;5.880;2023-04-23T07:34:10;6.95;;;5.50;;
77705;SDS011;66874;45.274;5.880;2023-04-23T07:36:36;7.05;;;5.45;;
77705;SDS011;66874;45.274;5.880;2023-04-23T07:39:01;8.30;;;5.30;;
77705;SDS011;66874;45.274;5.880;2023-04-23T07:41:29;6.72;;;5.00;;
77705;SDS011;66874;45.274;5.880;2023-04-23T07:43:54;6.35;;;5.15;;
77705;SDS011;66874;45.274;5.880;2023-04-23T07:46:20;7.18;;;4.57;;
77705;SDS011;66874;45.274;5.880;2023-04-23T07:48:45;6.53;;;4.57;;
77705;SDS011;66874;45.274;5.880;2023-04-23T07:51:11;5.85;;;4.60;;
77705;SDS011;66874;45.274;5.880;2023-04-23T07:53:36;5.30;;;4.28;;
77705;SDS011;66874;45.274;5.880;2023-04-23T07:56:02;10.45;;;5.75;;
77705;SDS011;66874;45.274;5.880;2023-04-23T07:58:27;9.63;;;5.65;;
77705;SDS011;66874;45.274;5.880;2023-04-23T08:00:52;8.73;;;5.80;;
77705;SDS011;66874;45.274;5.880;2023-04-23T08:03:18;11.40;;;6.90;;
77705;SDS011;66874;45.274;5.880;2023-04-23T08:05:43;14.65;;;5.90;;
77705;SDS011;66874;45.274;5.880;2023-04-23T08:08:10;10.20;;;6.50;;
77705;SDS011;66874;45.274;5.880;2023-04-23T08:10:35;7.68;;;5.88;;
77705;SDS011;66874;45.274;5.880;2023-04-23T08:13:01;10.13;;;6.20;;
77705;SDS011;66874;45.274;5.880;2023-04-23T08:15:27;9.02;;;5.80;;
77705;SDS011;66874;45.274;5.880;2023-04-23T08:17:52;9.27;;;5.45;;
77705;SDS011;66874;45.274;5.880;2023-04-23T08:20:18;7.22;;;4.43;;
77705;SDS011;66874;45.274;5.880;2023-04-23T08:22:43;9.95;;;4.72;;
77705;SDS011;66874;45.274;5.880;2023-04-23T08:25:09;7.80;;;4.50;;
77705;SDS011;66874;45.274;5.880;2023-04-23T08:27:35;8.07;;;4.95;;
77705;SDS011;66874;45.274;5.880;2023-04-23T08:30:00;7.35;;;4.90;;
77705;SDS011;66874;45.274;5.880;2023-04-23T08:32:26;12.13;;;4.68;;
77705;SDS011;66874;45.274;5.880;2023-04-23T08:34:51;8.38;;;3.85;;
77705;SDS011;66874;45.274;5.880;2023-04-23T08:37:17;7.35;;;3.70;;
77705;SDS011;66874;45.274;5.880;2023-04-23T08:39:42;7.25;;;3.70;;
77705;SDS011;66874;45.274;5.880;2023-04-23T08:44:55;5.47;;;3.53;;
77705;SDS011;66874;45.274;5.880;2023-04-23T08:47:22;5.25;;;3.50;;
77705;SDS011;66874;45.274;5.880;2023-04-23T08:49:49;9.35;;;3.83;;
77705;SDS011;66874;45.274;5.880;2023-04-23T08:52:21;5.10;;;3.03;;
77705;SDS011;66874;45.274;5.880;2023-04-23T08:54:48;4.95;;;2.15;;
77705;SDS011;66874;45.274;5.880;2023-04-23T08:57:16;13.18;;;4.07;;
77705;SDS011;66874;45.274;5.880;2023-04-23T08:59:42;6.40;;;3.45;;
77705;SDS011;66874;45.274;5.880;2023-04-23T09:02:08;5.60;;;3.65;;
77705;SDS011;66874;45.274;5.880;2023-04-23T09:04:34;7.40;;;4.72;;
77705;SDS011;66874;45.274;5.880;2023-04-23T09:07:03;8.13;;;3.83;;
77705;SDS011;66874;45.274;5.880;2023-04-23T09:09:29;9.32;;;4.13;;
77705;SDS011;66874;45.274;5.880;2023-04-23T09:11:58;5.95;;;4.47;;
77705;SDS011;66874;45.274;5.880;2023-04-23T09:14:23;10.23;;;4.30;;
77705;SDS011;66874;45.274;5.880;2023-04-23T09:16:49;6.60;;;4.18;;
77705;SDS011;66874;45.274;5.880;2023-04-23T09:19:15;5.88;;;4.32;;
77705;SDS011;66874;45.274;5.880;2023-04-23T09:21:42;8.00;;;4.05;;
77705;SDS011;66874;45.274;5.880;2023-04-23T09:24:09;5.93;;;4.00;;
77705;SDS011;66874;45.274;5.880;2023-04-23T09:26:36;9.00;;;4.05;;
77705;SDS011;66874;45.274;5.880;2023-04-23T09:29:13;4.80;;;3.75;;
77705;SDS011;66874;45.274;5.880;2023-04-23T09:31:41;6.35;;;4.50;;
77705;SDS011;66874;45.274;5.880;2023-04-23T09:34:07;6.82;;;3.70;;
77705;SDS011;66874;45.274;5.880;2023-04-23T09:36:33;5.18;;;3.22;;
77705;SDS011;66874;45.274;5.880;2023-04-23T09:39:01;6.72;;;4.22;;
77705;SDS011;66874;45.274;5.880;2023-04-23T09:41:27;8.38;;;3.65;;
77705;SDS011;66874;45.274;5.880;2023-04-23T09:43:54;7.35;;;3.28;;
77705;SDS011;66874;45.274;5.880;2023-04-23T09:46:32;6.43;;;3.87;;
77705;SDS011;66874;45.274;5.880;2023-04-23T09:49:02;4.78;;;3.58;;
77705;SDS011;66874;45.274;5.880;2023-04-23T09:51:30;4.30;;;3.05;;
77705;SDS011;66874;45.274;5.880;2023-04-23T09:53:56;6.55;;;3.45;;
77705;SDS011;66874;45.274;5.880;2023-04-23T09:56:22;6.18;;;3.83;;
77705;SDS011;66874;45.274;5.880;2023-04-23T09:58:48;3.47;;;3.17;;
77705;SDS011;66874;45.274;5.880;2023-04-23T10:01:14;5.75;;;3.78;;
77705;SDS011;66874;45.274;5.880;2023-04-23T10:03:41;7.57;;;3.47;;
77705;SDS011;66874;45.274;5.880;2023-04-23T10:06:08;6.50;;;3.28;;
77705;SDS011;66874;45.274;5.880;2023-04-23T10:08:37;7.13;;;3.53;;
77705;SDS011;66874;45.274;5.880;2023-04-23T10:11:03;4.70;;;3.30;;
77705;SDS011;66874;45.274;5.880;2023-04-23T10:13:29;6.90;;;3.13;;
77705;SDS011;66874;45.274;5.880;2023-04-23T10:15:55;6.40;;;3.58;;
77705;SDS011;66874;45.274;5.880;2023-04-23T10:18:22;6.28;;;3.88;;
77705;SDS011;66874;45.274;5.880;2023-04-23T10:20:48;8.27;;;4.65;;
77705;SDS011;66874;45.274;5.880;2023-04-23T10:23:14;5.95;;;3.60;;
77705;SDS011;66874;45.274;5.880;2023-04-23T10:25:43;9.15;;;4.30;;
77705;SDS011;66874;45.274;5.880;2023-04-23T10:28:09;9.82;;;4.40;;
77705;SDS011;66874;45.274;5.880;2023-04-23T10:30:37;7.15;;;4.13;;
77705;SDS011;66874;45.274;5.880;2023-04-23T10:33:03;8.13;;;3.90;;
77705;SDS011;66874;45.274;5.880;2023-04-23T10:35:30;10.18;;;4.10;;
77705;SDS011;66874;45.274;5.880;2023-04-23T10:37:58;9.30;;;4.00;;
77705;SDS011;66874;45.274;5.880;2023-04-23T10:40:31;5.60;;;4.18;;
77705;SDS011;66874;45.274;5.880;2023-04-23T10:43:00;6.30;;;4.07;;
77705;SDS011;66874;45.274;5.880;2023-04-23T10:45:26;10.93;;;4.65;;
77705;SDS011;66874;45.274;5.880;2023-04-23T10:47:55;4.95;;;3.70;;
77705;SDS011;66874;45.274;5.880;2023-04-23T10:50:25;5.60;;;4.20;;
77705;SDS011;66874;45.274;5.880;2023-04-23T10:52:52;8.98;;;4.60;;
77705;SDS011;66874;45.274;5.880;2023-04-23T10:55:39;5.90;;;3.47;;
77705;SDS011;66874;45.274;5.880;2023-04-23T10:58:06;10.52;;;6.00;;
77705;SDS011;66874;45.274;5.880;2023-04-23T11:06:04;8.63;;;3.17;;
77705;SDS011;66874;45.274;5.880;2023-04-23T11:08:30;6.40;;;2.83;;
77705;SDS011;66874;45.274;5.880;2023-04-23T11:10:57;7.13;;;2.88;;
77705;SDS011;66874;45.274;5.880;2023-04-23T11:13:27;6.50;;;3.50;;
77705;SDS011;66874;45.274;5.880;2023-04-23T11:18:55;5.22;;;2.30;;
77705;SDS011;66874;45.274;5.880;2023-04-23T11:22:06;5.35;;;3.22;;
77705;SDS011;66874;45.274;5.880;2023-04-23T11:24:34;7.43;;;2.95;;
77705;SDS011;66874;45.274;5.880;2023-04-23T11:27:05;4.32;;;3.10;;
77705;SDS011;66874;45.274;5.880;2023-04-23T11:29:33;7.68;;;2.88;;
77705;SDS011;66874;45.274;5.880;2023-04-23T11:31:58;4.97;;;2.83;;
77705;SDS011;66874;45.274;5.880;2023-04-23T11:34:24;8.27;;;3.22;;
77705;SDS011;66874;45.274;5.880;2023-04-23T11:36:51;8.50;;;3.17;;
77705;SDS011;66874;45.274;5.880;2023-04-23T11:39:18;7.65;;;3.25;;
77705;SDS011;66874;45.274;5.880;2023-04-23T11:41:44;7.22;;;3.15;;
77705;SDS011;66874;45.274;5.880;2023-04-23T11:44:11;8.55;;;2.90;;
77705;SDS011;66874;45.274;5.880;2023-04-23T11:46:36;6.82;;;3.28;;
77705;SDS011;66874;45.274;5.880;2023-04-23T11:49:02;7.60;;;3.03;;
77705;SDS011;66874;45.274;5.880;2023-04-23T11:51:28;5.25;;;2.80;;
77705;SDS011;66874;45.274;5.880;2023-04-23T11:53:53;7.35;;;2.78;;
77705;SDS011;66874;45.274;5.880;2023-04-23T11:56:19;4.50;;;2.63;;
77705;SDS011;66874;45.274;5.880;2023-04-23T11:58:44;4.97;;;3.00;;
77705;SDS011;66874;45.274;5.880;2023-04-23T12:01:10;5.65;;;3.50;;
77705;SDS011;66874;45.274;5.880;2023-04-23T12:03:39;5.20;;;2.90;;
77705;SDS011;66874;45.274;5.880;2023-04-23T12:06:05;5.07;;;2.58;;
77705;SDS011;66874;45.274;5.880;2023-04-23T12:08:34;5.55;;;3.00;;
77705;SDS011;66874;45.274;5.880;2023-04-23T12:11:01;7.55;;;3.45;;
77705;SDS011;66874;45.274;5.880;2023-04-23T12:13:28;6.28;;;3.38;;
77705;SDS011;66874;45.274;5.880;2023-04-23T12:16:00;5.30;;;3.17;;
77705;SDS011;66874;45.274;5.880;2023-04-23T12:18:52;6.07;;;2.88;;
77705;SDS011;66874;45.274;5.880;2023-04-23T12:21:17;3.83;;;2.38;;
77705;SDS011;66874;45.274;5.880;2023-04-23T12:23:43;4.22;;;3.10;;
77705;SDS011;66874;45.274;5.880;2023-04-23T12:26:12;7.05;;;2.30;;
77705;SDS011;66874;45.274;5.880;2023-04-23T12:28:46;5.38;;;3.15;;
77705;SDS011;66874;45.274;5.880;2023-04-23T12:31:18;4.82;;;2.33;;
77705;SDS011;66874;45.274;5.880;2023-04-23T12:33:45;3.58;;;2.10;;
77705;SDS011;66874;45.274;5.880;2023-04-23T12:36:13;4.72;;;2.33;;
77705;SDS011;66874;45.274;5.880;2023-04-23T12:38:40;3.05;;;2.30;;
77705;SDS011;66874;45.274;5.880;2023-04-23T12:41:06;7.55;;;3.13;;
77705;SDS011;66874;45.274;5.880;2023-04-23T12:43:32;4.47;;;2.60;;
77705;SDS011;66874;45.274;5.880;2023-04-23T12:45:57;3.55;;;2.45;;
77705;SDS011;66874;45.274;5.880;2023-04-23T12:48:23;3.97;;;2.50;;
77705;SDS011;66874;45.274;5.880;2023-04-23T12:50:48;5.63;;;2.55;;
77705;SDS011;66874;45.274;5.880;2023-04-23T12:53:14;5.03;;;2.10;;
77705;SDS011;66874;45.274;5.880;2023-04-23T12:55:39;5.20;;;2.08;;
77705;SDS011;66874;45.274;5.880;2023-04-23T12:58:07;2.83;;;2.25;;
77705;SDS011;66874;45.274;5.880;2023-04-23T13:00:32;7.60;;;3.13;;
77705;SDS011;66874;45.274;5.880;2023-04-23T13:02:58;2.45;;;2.13;;
77705;SDS011;66874;45.274;5.880;2023-04-23T13:05:23;3.58;;;2.58;;
77705;SDS011;66874;45.274;5.880;2023-04-23T13:07:48;3.92;;;2.38;;
77705;SDS011;66874;45.274;5.880;2023-04-23T13:10:14;5.78;;;2.45;;
77705;SDS011;66874;45.274;5.880;2023-04-23T13:12:40;6.20;;;2.20;;
77705;SDS011;66874;45.274;5.880;2023-04-23T13:15:06;5.50;;;2.28;;
77705;SDS011;66874;45.274;5.880;2023-04-23T13:17:33;5.53;;;2.70;;
77705;SDS011;66874;45.274;5.880;2023-04-23T13:19:59;3.33;;;2.17;;
77705;SDS011;66874;45.274;5.880;2023-04-23T13:22:24;5.47;;;2.70;;
77705;SDS011;66874;45.274;5.880;2023-04-23T13:24:53;7.45;;;2.20;;
77705;SDS011;66874;45.274;5.880;2023-04-23T13:27:21;4.90;;;2.40;;
77705;SDS011;66874;45.274;5.880;2023-04-23T13:29:47;7.60;;;2.33;;
77705;SDS011;66874;45.274;5.880;2023-04-23T13:32:12;3.88;;;2.97;;
77705;SDS011;66874;45.274;5.880;2023-04-23T13:34:37;8.18;;;2.53;;
77705;SDS011;66874;45.274;5.880;2023-04-23T13:37:03;6.30;;;2.70;;
77705;SDS011;66874;45.274;5.880;2023-04-23T13:39:30;6.35;;;2.00;;
77705;SDS011;66874;45.274;5.880;2023-04-23T13:41:56;4.38;;;2.15;;
77705;SDS011;66874;45.274;5.880;2023-04-23T13:44:21;3.67;;;2.63;;
77705;SDS011;66874;45.274;5.880;2023-04-23T13:46:47;2.40;;;2.13;;
77705;SDS011;66874;45.274;5.880;2023-04-23T13:49:13;3.83;;;2.35;;
77705;SDS011;66874;45.274;5.880;2023-04-23T13:51:39;4.88;;;2.33;;
77705;SDS011;66874;45.274;5.880;2023-04-23T13:54:04;3.92;;;0.93;;
77705;SDS011;66874;45.274;5.880;2023-04-23T13:56:33;0.98;;;0.90;;
77705;SDS011;66874;45.274;5.880;2023-04-23T13:58:58;3.20;;;1.00;;
77705;SDS011;66874;45.274;5.880;2023-04-23T14:01:26;1.27;;;0.50;;
77705;SDS011;66874;45.274;5.880;2023-04-23T14:03:52;3.92;;;0.98;;
77705;SDS011;66874;45.274;5.880;2023-04-23T14:06:17;6.10;;;2.47;;
77705;SDS011;66874;45.274;5.880;2023-04-23T14:08:43;4.18;;;2.58;;
77705;SDS011;66874;45.274;5.880;2023-04-23T14:11:08;4.35;;;2.42;;
77705;SDS011;66874;45.274;5.880;2023-04-23T14:13:34;6.32;;;1.98;;
77705;SDS011;66874;45.274;5.880;2023-04-23T14:16:00;3.97;;;1.83;;
77705;SDS011;66874;45.274;5.880;2023-04-23T14:18:26;6.00;;;1.98;;
77705;SDS011;66874;45.274;5.880;2023-04-23T14:20:52;5.00;;;2.20;;
77705;SDS011;66874;45.274;5.880;2023-04-23T14:23:35;4.28;;;1.75;;
77705;SDS011;66874;45.274;5.880;2023-04-23T14:26:27;3.95;;;2.00;;
77705;SDS011;66874;45.274;5.880;2023-04-23T14:29:01;2.88;;;1.40;;
77705;SDS011;66874;45.274;5.880;2023-04-23T14:31:28;5.07;;;1.02;;
77705;SDS011;66874;45.274;5.880;2023-04-23T14:33:54;1.40;;;0.77;;
77705;SDS011;66874;45.274;5.880;2023-04-23T14:36:22;5.00;;;1.25;;
77705;SDS011;66874;45.274;5.880;2023-04-23T14:38:48;3.58;;;1.35;;
77705;SDS011;66874;45.274;5.880;2023-04-23T14:41:14;1.85;;;1.23;;
77705;SDS011;66874;45.274;5.880;2023-04-23T14:43:39;5.53;;;1.40;;
77705;SDS011;66874;45.274;5.880;2023-04-23T14:46:04;2.53;;;0.98;;
77705;SDS011;66874;45.274;5.880;2023-04-23T14:48:30;2.95;;;1.38;;
77705;SDS011;66874;45.274;5.880;2023-04-23T14:50:56;2.45;;;0.93;;
77705;SDS011;66874;45.274;5.880;2023-04-23T14:53:21;3.35;;;1.20;;
77705;SDS011;66874;45.274;5.880;2023-04-23T14:55:47;4.70;;;1.38;;
77705;SDS011;66874;45.274;5.880;2023-04-23T14:58:12;1.10;;;0.80;;
77705;SDS011;66874;45.274;5.880;2023-04-23T15:00:37;4.45;;;1.00;;
77705;SDS011;66874;45.274;5.880;2023-04-23T15:03:03;2.42;;;1.20;;
77705;SDS011;66874;45.274;5.880;2023-04-23T15:05:34;1.63;;;1.13;;
77705;SDS011;66874;45.274;5.880;2023-04-23T15:08:01;3.90;;;1.23;;
77705;SDS011;66874;45.274;5.880;2023-04-23T15:10:26;2.05;;;1.48;;
77705;SDS011;66874;45.274;5.880;2023-04-23T15:15:29;3.70;;;1.45;;
77705;SDS011;66874;45.274;5.880;2023-04-23T15:18:13;3.88;;;1.10;;
77705;SDS011;66874;45.274;5.880;2023-04-23T15:20:39;1.92;;;1.20;;
77705;SDS011;66874;45.274;5.880;2023-04-23T15:23:05;3.03;;;1.40;;
77705;SDS011;66874;45.274;5.880;2023-04-23T15:25:31;1.92;;;0.93;;
77705;SDS011;66874;45.274;5.880;2023-04-23T15:27:58;3.08;;;0.95;;
77705;SDS011;66874;45.274;5.880;2023-04-23T15:30:25;5.03;;;1.20;;
77705;SDS011;66874;45.274;5.880;2023-04-23T15:32:51;3.67;;;1.00;;
77705;SDS011;66874;45.274;5.880;2023-04-23T15:35:20;1.35;;;0.85;;
77705;SDS011;66874;45.274;5.880;2023-04-23T15:37:46;1.90;;;0.80;;
77705;SDS011;66874;45.274;5.880;2023-04-23T15:40:11;3.50;;;0.80;;
77705;SDS011;66874;45.274;5.880;2023-04-23T15:42:37;0.80;;;0.40;;
77705;SDS011;66874;45.274;5.880;2023-04-23T15:45:05;1.75;;;0.50;;
77705;SDS011;66874;45.274;5.880;2023-04-23T15:47:33;1.77;;;0.30;;
77705;SDS011;66874;45.274;5.880;2023-04-23T15:49:58;0.85;;;0.40;;
77705;SDS011;66874;45.274;5.880;2023-04-23T15:52:25;2.08;;;0.52;;
77705;SDS011;66874;45.274;5.880;2023-04-23T15:54:50;1.02;;;0.50;;
77705;SDS011;66874;45.274;5.880;2023-04-23T15:57:16;0.30;;;0.20;;
77705;SDS011;66874;45.274;5.880;2023-04-23T15:59:41;2.67;;;0.20;;
77705;SDS011;66874;45.274;5.880;2023-04-23T16:02:07;2.22;;;0.57;;
77705;SDS011;66874;45.274;5.880;2023-04-23T16:04:32;0.10;;;0.10;;
77705;SDS011;66874;45.274;5.880;2023-04-23T16:06:58;1.75;;;0.20;;
77705;SDS011;66874;45.274;5.880;2023-04-23T16:09:23;1.08;;;0.20;;
77705;SDS011;66874;45.274;5.880;2023-04-23T16:11:50;0.10;;;0.10;;
77705;SDS011;66874;45.274;5.880;2023-04-23T16:14:16;0.63;;;0.20;;
77705;SDS011;66874;45.274;5.880;2023-04-23T16:16:41;0.25;;;0.25;;
77705;SDS011;66874;45.274;5.880;2023-04-23T16:19:07;1.23;;;0.52;;
77705;SDS011;66874;45.274;5.880;2023-04-23T16:21:32;0.65;;;0.57;;
77705;SDS011;66874;45.274;5.880;2023-04-23T16:23:58;2.83;;;0.63;;
77705;SDS011;66874;45.274;5.880;2023-04-23T16:26:23;0.60;;;0.40;;
77705;SDS011;66874;45.274;5.880;2023-04-23T16:28:49;1.08;;;0.40;;
77705;SDS011;66874;45.274;5.880;2023-04-23T16:31:15;0.95;;;0.43;;
77705;SDS011;66874;45.274;5.880;2023-04-23T16:33:41;1.70;;;0.43;;
77705;SDS011;66874;45.274;5.880;2023-04-23T16:36:06;2.22;;;0.55;;
77705;SDS011;66874;45.274;5.880;2023-04-23T16:38:31;1.65;;;0.55;;
77705;SDS011;66874;45.274;5.880;2023-04-23T16:40:58;1.80;;;1.58;;
77705;SDS011;66874;45.274;5.880;2023-04-23T16:43:23;1.75;;;0.80;;
77705;SDS011;66874;45.274;5.880;2023-04-23T16:45:49;2.00;;;0.68;;
77705;SDS011;66874;45.274;5.880;2023-04-23T16:48:14;1.92;;;0.60;;
77705;SDS011;66874;45.274;5.880;2023-04-23T16:50:41;1.08;;;0.85;;
77705;SDS011;66874;45.274;5.880;2023-04-23T16:53:08;1.45;;;0.63;;
77705;SDS011;66874;45.274;5.880;2023-04-23T16:55:33;3.03;;;1.15;;
77705;SDS011;66874;45.274;5.880;2023-04-23T16:58:01;1.83;;;0.98;;
77705;SDS011;66874;45.274;5.880;2023-04-23T17:00:26;2.00;;;0.88;;
77705;SDS011;66874;45.274;5.880;2023-04-23T17:02:52;4.47;;;1.50;;
77705;SDS011;66874;45.274;5.880;2023-04-23T17:05:17;6.25;;;1.88;;
77705;SDS011;66874;45.274;5.880;2023-04-23T17:07:46;4.93;;;1.33;;
77705;SDS011;66874;45.274;5.880;2023-04-23T17:10:11;2.58;;;0.93;;
77705;SDS011;66874;45.274;5.880;2023-04-23T17:12:39;2.67;;;1.50;;
77705;SDS011;66874;45.274;5.880;2023-04-23T17:15:04;3.10;;;0.85;;
77705;SDS011;66874;45.274;5.880;2023-04-23T17:17:30;2.92;;;1.17;;
77705;SDS011;66874;45.274;5.880;2023-04-23T17:19:56;3.95;;;2.72;;
77705;SDS011;66874;45.274;5.880;2023-04-23T17:22:21;3.92;;;1.73;;
77705;SDS011;66874;45.274;5.880;2023-04-23T17:24:46;4.05;;;2.00;;
77705;SDS011;66874;45.274;5.880;2023-04-23T17:27:12;8.40;;;1.83;;
77705;SDS011;66874;45.274;5.880;2023-04-23T17:29:37;6.43;;;4.00;;
77705;SDS011;66874;45.274;5.880;2023-04-23T17:32:02;6.93;;;4.20;;
77705;SDS011;66874;45.274;5.880;2023-04-23T17:34:28;14.52;;;3.67;;
77705;SDS011;66874;45.274;5.880;2023-04-23T17:36:53;2.47;;;1.70;;
77705;SDS011;66874;45.274;5.880;2023-04-23T17:39:19;3.35;;;1.40;;
77705;SDS011;66874;45.274;5.880;2023-04-23T17:41:47;6.05;;;1.65;;
77705;SDS011;66874;45.274;5.880;2023-04-23T17:44:12;13.75;;;2.10;;
77705;SDS011;66874;45.274;5.880;2023-04-23T17:46:38;5.05;;;2.90;;
77705;SDS011;66874;45.274;5.880;2023-04-23T17:49:03;6.68;;;3.42;;
77705;SDS011;66874;45.274;5.880;2023-04-23T17:51:29;5.53;;;4.00;;
77705;SDS011;66874;45.274;5.880;2023-04-23T17:53:54;5.60;;;3.55;;
77705;SDS011;66874;45.274;5.880;2023-04-23T17:56:20;9.20;;;6.10;;
77705;SDS011;66874;45.274;5.880;2023-04-23T17:58:46;5.43;;;3.40;;
77705;SDS011;66874;45.274;5.880;2023-04-23T18:01:11;9.05;;;5.40;;
77705;SDS011;66874;45.274;5.880;2023-04-23T18:03:36;29.00;;;12.98;;
77705;SDS011;66874;45.274;5.880;2023-04-23T18:06:02;11.20;;;3.15;;
77705;SDS011;66874;45.274;5.880;2023-04-23T18:08:28;7.07;;;2.10;;
77705;SDS011;66874;45.274;5.880;2023-04-23T18:10:54;9.90;;;3.22;;
77705;SDS011;66874;45.274;5.880;2023-04-23T18:13:19;4.72;;;2.70;;
77705;SDS011;66874;45.274;5.880;2023-04-23T18:15:45;3.20;;;2.67;;
77705;SDS011;66874;45.274;5.880;2023-04-23T18:18:14;3.97;;;2.60;;
77705;SDS011;66874;45.274;5.880;2023-04-23T18:20:42;4.40;;;3.42;;
77705;SDS011;66874;45.274;5.880;2023-04-23T18:23:10;6.60;;;3.92;;
77705;SDS011;66874;45.274;5.880;2023-04-23T18:25:36;4.23;;;2.40;;
77705;SDS011;66874;45.274;5.880;2023-04-23T18:28:02;3.35;;;1.88;;
77705;SDS011;66874;45.274;5.880;2023-04-23T18:30:28;3.10;;;1.55;;
77705;SDS011;66874;45.274;5.880;2023-04-23T18:32:58;2.25;;;1.90;;
77705;SDS011;66874;45.274;5.880;2023-04-23T18:35:32;4.30;;;1.60;;
77705;SDS011;66874;45.274;5.880;2023-04-23T18:37:59;2.28;;;1.27;;
77705;SDS011;66874;45.274;5.880;2023-04-23T18:40:28;3.72;;;1.95;;
77705;SDS011;66874;45.274;5.880;2023-04-23T18:42:54;8.25;;;2.78;;
77705;SDS011;66874;45.274;5.880;2023-04-23T18:45:19;4.15;;;2.85;;
77705;SDS011;66874;45.274;5.880;2023-04-23T18:48:01;5.05;;;2.85;;
77705;SDS011;66874;45.274;5.880;2023-04-23T18:50:47;4.88;;;3.90;;
77705;SDS011;66874;45.274;5.880;2023-04-23T18:53:14;6.30;;;3.73;;
77705;SDS011;66874;45.274;5.880;2023-04-23T18:55:39;4.63;;;2.50;;
77705;SDS011;66874;45.274;5.880;2023-04-23T18:58:04;8.18;;;3.72;;
77705;SDS011;66874;45.274;5.880;2023-04-23T19:00:30;10.65;;;5.72;;
77705;SDS011;66874;45.274;5.880;2023-04-23T19:02:56;6.90;;;4.15;;
77705;SDS011;66874;45.274;5.880;2023-04-23T19:05:21;8.73;;;3.70;;
77705;SDS011;66874;45.274;5.880;2023-04-23T19:07:47;5.40;;;2.53;;
77705;SDS011;66874;45.274;5.880;2023-04-23T19:10:12;6.78;;;2.58;;
77705;SDS011;66874;45.274;5.880;2023-04-23T19:12:38;4.25;;;2.42;;
77705;SDS011;66874;45.274;5.880;2023-04-23T19:15:04;5.25;;;2.95;;
77705;SDS011;66874;45.274;5.880;2023-04-23T19:17:29;8.50;;;2.97;;
77705;SDS011;66874;45.274;5.880;2023-04-23T19:19:55;3.65;;;2.60;;
77705;SDS011;66874;45.274;5.880;2023-04-23T19:22:20;5.32;;;2.60;;
77705;SDS011;66874;45.274;5.880;2023-04-23T19:24:49;7.07;;;3.22;;
77705;SDS011;66874;45.274;5.880;2023-04-23T19:27:15;5.47;;;2.88;;
77705;SDS011;66874;45.274;5.880;2023-04-23T19:29:40;3.85;;;2.60;;
77705;SDS011;66874;45.274;5.880;2023-04-23T19:32:05;4.50;;;2.55;;
77705;SDS011;66874;45.274;5.880;2023-04-23T19:34:31;4.00;;;2.58;;
77705;SDS011;66874;45.274;5.880;2023-04-23T19:36:56;4.32;;;2.90;;
77705;SDS011;66874;45.274;5.880;2023-04-23T19:39:22;6.28;;;2.80;;
77705;SDS011;66874;45.274;5.880;2023-04-23T19:41:48;4.53;;;3.20;;
77705;SDS011;66874;45.274;5.880;2023-04-23T19:44:14;4.60;;;2.60;;
77705;SDS011;66874;45.274;5.880;2023-04-23T19:46:39;7.65;;;2.78;;
77705;SDS011;66874;45.274;5.880;2023-04-23T19:49:05;5.85;;;3.10;;
77705;SDS011;66874;45.274;5.880;2023-04-23T19:51:31;4.38;;;2.30;;
77705;SDS011;66874;45.274;5.880;2023-04-23T19:53:59;2.72;;;2.00;;
77705;SDS011;66874;45.274;5.880;2023-04-23T19:56:25;5.22;;;2.88;;